Time;durP1;ratioP1;P1;durP2;ratioP2;P2;SDS_P1;SDS_P2;PMS_P1;PMS_P2;Temp;Humidity;BMP_temperature;BMP_pressure;BME280_temperature;BME280_humidity;BME280_pressure;Samples;Min_cycle;Max_cycle;Signal;HPM_P1;HPM_P2
2022/05/26 00:00:39;;;;;;;6.35;3.10;;;18.90;55.80;;;;;;5045222;28;20040;-73
2022/05/26 00:03:05;;;;;;;7.38;3.45;;;19.00;55.70;;;;;;5055473;28;20025;-76
2022/05/26 00:05:31;;;;;;;10.02;3.45;;;19.00;55.60;;;;;;5055354;28;20032;-73
2022/05/26 00:07:57;;;;;;;6.15;3.25;;;19.00;55.40;;;;;;5073944;28;20028;-76
2022/05/26 00:10:23;;;;;;;6.68;3.53;;;19.10;55.50;;;;;;5072972;28;20131;-72
2022/05/26 00:12:50;;;;;;;5.57;3.00;;;19.10;55.50;;;;;;5038848;28;20039;-76
2022/05/26 00:15:16;;;;;;;6.80;3.22;;;19.00;54.90;;;;;;5072905;28;20060;-72
2022/05/26 00:17:42;;;;;;;6.72;3.30;;;19.00;55.60;;;;;;5073710;28;20041;-76
2022/05/26 00:20:09;;;;;;;5.72;3.47;;;19.00;56.00;;;;;;5055381;28;20468;-76
2022/05/26 00:22:36;;;;;;;5.60;2.42;;;18.90;56.00;;;;;;5073550;28;20044;-72
2022/05/26 00:25:03;;;;;;;4.35;1.98;;;18.90;55.60;;;;;;5055522;28;20066;-72
2022/05/26 00:27:29;;;;;;;5.32;2.67;;;19.00;56.10;;;;;;5027178;28;20056;-73
2022/05/26 00:29:55;;;;;;;3.80;1.80;;;19.10;56.20;;;;;;5034888;28;20088;-76
2022/05/26 00:32:21;;;;;;;3.95;1.92;;;19.10;56.10;;;;;;5052994;28;20045;-76
2022/05/26 00:34:47;;;;;;;5.18;2.00;;;19.20;56.00;;;;;;5052075;28;20037;-76
2022/05/26 00:37:14;;;;;;;4.78;1.98;;;19.20;56.10;;;;;;5053067;28;20037;-72
2022/05/26 00:39:40;;;;;;;3.88;1.50;;;19.30;56.00;;;;;;5035422;28;20033;-76
2022/05/26 00:42:07;;;;;;;2.90;1.40;;;19.20;55.80;;;;;;5035015;28;20063;-76
2022/05/26 00:44:37;;;;;;;4.45;1.35;;;19.20;55.80;;;;;;5018698;28;20043;-76
2022/05/26 00:47:24;;;;;;;3.92;1.40;;;19.20;56.00;;;;;;5030893;28;20057;-76
2022/05/26 00:50:28;;;;;;;3.33;1.58;;;19.20;55.90;;;;;;5033574;28;20116;-76
2022/05/26 00:53:53;;;;;;;4.60;1.88;;;19.20;56.00;;;;;;5015397;28;20058;-76
2022/05/26 00:56:29;;;;;;;4.55;1.98;;;19.20;56.10;;;;;;5032741;28;20037;-72
2022/05/26 00:59:38;;;;;;;3.92;1.63;;;19.20;56.40;;;;;;4998925;28;20033;-73
2022/05/26 01:02:05;;;;;;;6.60;2.20;;;19.10;56.60;;;;;;5031830;28;20132;-76
2022/05/26 01:04:55;;;;;;;6.43;2.80;;;19.00;57.40;;;;;;5034983;28;20037;-72
2022/05/26 01:07:26;;;;;;;7.18;3.83;;;18.90;57.60;;;;;;5034740;28;20033;-76
2022/05/26 01:09:52;;;;;;;13.15;6.90;;;18.90;57.70;;;;;;5018586;28;20318;-73
2022/05/26 01:12:18;;;;;;;;;;;18.90;57.60;;;;;;5018537;28;20033;-76
2022/05/26 01:15:24;;;;;;;17.20;8.02;;;18.80;56.90;;;;;;5034911;28;19917;-72
2022/05/26 01:18:32;;;;;;;13.85;7.63;;;18.90;57.30;;;;;;5034891;28;20033;-73
2022/05/26 01:21:55;;;;;;;14.25;6.90;;;18.80;57.30;;;;;;5034505;28;20033;-76
2022/05/26 01:24:47;;;;;;;11.63;5.85;;;18.80;57.50;;;;;;5052845;28;20026;-77
2022/05/26 01:28:16;;;;;;;6.53;2.13;;;18.80;57.80;;;;;;5061469;28;20048;-76
2022/05/26 01:31:09;;;;;;;4.72;2.20;;;18.80;57.60;;;;;;5049957;28;20448;-73
2022/05/26 01:34:04;;;;;;;4.60;1.70;;;18.80;58.00;;;;;;5052469;28;20470;-76
2022/05/26 01:37:38;;;;;;;3.08;1.40;;;18.80;57.70;;;;;;5052147;28;20094;-76
2022/05/26 01:40:10;;;;;;;2.67;1.10;;;18.90;57.70;;;;;;4932697;29;20071;-73
2022/05/26 01:43:32;;;;;;;2.95;1.10;;;18.90;57.90;;;;;;4936085;29;20062;-76
2022/05/26 01:47:00;;;;;;;3.33;1.20;;;18.90;57.50;;;;;;4956498;28;20129;-72
2022/05/26 01:49:40;;;;;;;5.20;1.50;;;18.90;57.30;;;;;;4876293;29;20492;-76
2022/05/26 01:52:45;;;;;;;3.90;1.40;;;18.90;57.80;;;;;;4860417;29;20082;-73
2022/05/26 01:56:09;;;;;;;4.38;1.40;;;18.80;57.80;;;;;;4875794;29;20064;-73
2022/05/26 01:59:31;;;;;;;3.83;1.38;;;18.80;58.00;;;;;;4876100;29;20045;-76
2022/05/26 02:02:07;;;;;;;3.92;1.20;;;18.80;58.00;;;;;;4875219;29;20127;-72
2022/05/26 02:05:13;;;;;;;4.00;1.40;;;18.90;58.10;;;;;;4876263;29;20450;-73
2022/05/26 02:08:06;;;;;;;3.60;1.30;;;18.90;58.00;;;;;;4876250;29;20452;-76
2022/05/26 02:11:30;;;;;;;3.03;1.20;;;18.90;57.90;;;;;;4860337;29;20046;-76
2022/05/26 02:14:00;;;;;;;2.38;1.20;;;18.80;58.10;;;;;;4875872;29;20057;-76
2022/05/26 02:16:44;;;;;;;4.15;1.35;;;18.70;58.60;;;;;;4915893;28;20477;-76
2022/05/26 02:20:07;;;;;;;3.35;1.33;;;18.70;59.10;;;;;;4951603;29;20079;-73
2022/05/26 02:22:43;;;;;;;3.80;1.40;;;18.60;58.90;;;;;;4935520;29;20035;-72
2022/05/26 02:25:34;;;;;;;3.80;1.25;;;18.60;58.90;;;;;;4938390;28;20464;-73
2022/05/26 02:28:01;;;;;;;3.05;1.27;;;18.60;58.80;;;;;;5071850;28;20386;-76
2022/05/26 02:30:30;;;;;;;;;;;18.70;58.10;;;;;;5053915;28;20094;-73
2022/05/26 02:32:58;;;;;;;2.70;1.20;;;18.80;57.70;;;;;;5053355;28;20361;-76
2022/05/26 02:35:31;;;;;;;4.30;1.40;;;18.70;58.30;;;;;;5057310;28;20037;-73
2022/05/26 02:38:35;;;;;;;2.63;1.17;;;18.70;58.70;;;;;;5057865;28;20033;-76
2022/05/26 02:41:01;;;;;;;4.45;1.15;;;18.70;58.70;;;;;;5075185;28;20071;-76
2022/05/26 02:43:33;;;;;;;4.40;1.90;;;18.70;58.90;;;;;;5075559;28;20035;-72
2022/05/26 02:46:36;;;;;;;4.43;1.40;;;18.70;58.70;;;;;;5039152;28;20083;-73
2022/05/26 02:49:58;;;;;;;2.70;1.40;;;18.80;58.40;;;;;;5075447;28;20032;-73
2022/05/26 02:52:24;;;;;;;4.78;1.73;;;18.80;58.10;;;;;;5074884;28;20430;-76
2022/05/26 02:55:34;;;;;;;3.15;1.42;;;18.90;58.30;;;;;;5075612;28;20119;-76
2022/05/26 02:58:24;;;;;;;5.28;1.75;;;18.90;58.00;;;;;;5075134;28;20111;-73
2022/05/26 03:01:15;;;;;;;4.05;1.88;;;18.90;58.20;;;;;;5040122;28;20029;-76
2022/05/26 03:03:59;;;;;;;5.80;2.20;;;18.90;58.20;;;;;;5057226;28;20026;-76
2022/05/26 03:06:38;;;;;;;4.50;2.17;;;19.00;58.10;;;;;;5040261;28;20037;-76
2022/05/26 03:09:07;;;;;;;3.85;1.85;;;18.90;58.20;;;;;;5057095;28;20486;-76
2022/05/26 03:12:03;;;;;;;4.65;1.92;;;18.90;58.20;;;;;;5056849;28;20150;-72
2022/05/26 03:14:29;;;;;;;4.70;1.55;;;18.90;58.30;;;;;;5040085;28;20044;-73
2022/05/26 03:16:55;;;;;;;3.65;1.50;;;18.90;58.70;;;;;;5052434;28;20041;-76
2022/05/26 03:19:21;;;;;;;3.45;1.25;;;18.90;58.70;;;;;;5055037;28;20549;-72
2022/05/26 03:21:48;;;;;;;3.42;1.30;;;18.90;58.60;;;;;;5054131;28;20083;-76
2022/05/26 03:24:14;;;;;;;3.63;1.08;;;18.90;58.60;;;;;;5054859;28;20405;-72
2022/05/26 03:26:41;;;;;;;2.83;1.30;;;18.90;58.70;;;;;;5048024;28;20560;-75
2022/05/26 03:29:07;;;;;;;;;;;18.90;58.90;;;;;;5035382;28;20044;-76
2022/05/26 03:31:34;;;;;;;3.67;1.38;;;18.80;58.20;;;;;;5018945;28;19921;-73
2022/05/26 03:42:17;;;;;;;3.65;1.63;;;18.80;59.10;;;;;;5054148;28;20088;-76
2022/05/26 03:44:44;;;;;;;2.85;1.30;;;18.80;59.00;;;;;;5019676;28;20060;-72
2022/05/26 03:47:10;;;;;;;4.00;1.40;;;18.80;59.00;;;;;;5052768;28;20486;-73
2022/05/26 03:49:36;;;;;;;5.25;1.20;;;18.80;59.10;;;;;;5036525;28;20036;-76
2022/05/26 03:52:02;;;;;;;6.32;1.70;;;18.80;59.20;;;;;;5053785;28;20120;-73
2022/05/26 03:54:30;;;;;;;2.95;1.38;;;18.80;58.60;;;;;;5036462;28;20045;-76
2022/05/26 03:56:57;;;;;;;3.95;1.30;;;18.90;59.30;;;;;;5036334;28;20029;-76
2022/05/26 03:59:23;;;;;;;4.50;1.35;;;18.90;59.20;;;;;;5036353;28;20430;-75
2022/05/26 04:01:49;;;;;;;4.35;1.38;;;18.90;59.30;;;;;;5035153;28;20106;-72
2022/05/26 04:04:16;;;;;;;6.95;1.48;;;19.00;59.40;;;;;;5054220;28;20067;-73
2022/05/26 04:06:42;;;;;;;3.65;1.40;;;18.90;59.50;;;;;;5035897;28;20136;-76
2022/05/26 04:09:08;;;;;;;;;;;18.90;60.40;;;;;;5054583;28;20453;-73
2022/05/26 04:11:35;;;;;;;3.55;1.30;;;18.90;58.40;;;;;;5035727;28;20358;-73
2022/05/26 04:14:01;;;;;;;4.28;1.30;;;19.00;59.40;;;;;;5035793;28;20033;-72
2022/05/26 04:16:27;;;;;;;;;;;19.00;59.60;;;;;;5036111;28;20112;-73
2022/05/26 04:18:53;;;;;;;7.63;1.20;;;19.00;58.90;;;;;;5050424;28;20288;-76
2022/05/26 04:21:20;;;;;;;;;;;19.00;58.80;;;;;;5053741;28;20035;-73
2022/05/26 04:23:46;;;;;;;2.23;1.10;;;19.00;58.60;;;;;;5035570;28;20293;-76
2022/05/26 04:26:12;;;;;;;9.38;1.60;;;19.10;59.10;;;;;;5019543;28;20086;-76
2022/05/26 04:28:38;;;;;;;;;;;19.10;58.60;;;;;;5056119;28;20044;-76
2022/05/26 04:31:05;;;;;;;6.63;1.80;;;19.10;58.60;;;;;;5038335;28;19917;-72
2022/05/26 04:33:34;;;;;;;6.88;1.80;;;19.10;58.90;;;;;;5072390;28;20381;-73
2022/05/26 04:36:06;;;;;;;7.35;1.48;;;19.20;59.00;;;;;;5055213;28;20384;-73
2022/05/26 04:38:33;;;;;;;6.35;1.80;;;19.20;59.10;;;;;;5055300;28;20032;-72
2022/05/26 04:41:21;;;;;;;4.18;1.38;;;19.30;58.60;;;;;;5054932;28;20390;-73
2022/05/26 04:43:47;;;;;;;4.45;1.55;;;19.40;59.00;;;;;;5055227;28;20036;-76
2022/05/26 04:46:13;;;;;;;6.53;1.60;;;19.40;58.90;;;;;;5054912;28;20033;-73
2022/05/26 04:48:39;;;;;;;7.50;1.50;;;19.40;59.00;;;;;;5054155;28;20045;-73
2022/05/26 04:51:05;;;;;;;3.80;2.13;;;19.40;59.10;;;;;;5072735;28;20032;-76
2022/05/26 04:53:33;;;;;;;4.70;1.90;;;19.50;59.00;;;;;;5055050;28;20045;-73
2022/05/26 04:55:59;;;;;;;4.35;1.40;;;19.60;58.90;;;;;;5054708;28;20044;-73
2022/05/26 04:58:25;;;;;;;4.63;1.45;;;19.60;59.00;;;;;;5072051;28;20040;-76
2022/05/26 05:00:51;;;;;;;3.22;1.35;;;19.60;59.00;;;;;;5037924;28;20537;-76
2022/05/26 05:03:18;;;;;;;4.47;1.23;;;19.60;58.50;;;;;;5037512;28;20062;-74
2022/05/26 05:05:44;;;;;;;4.30;1.27;;;19.60;59.20;;;;;;5072437;28;20041;-76
2022/05/26 05:08:10;;;;;;;3.88;1.45;;;19.70;59.30;;;;;;5054664;28;20431;-73
2022/05/26 05:10:37;;;;;;;4.07;1.58;;;19.80;59.20;;;;;;5037768;28;20040;-73
2022/05/26 05:13:03;;;;;;;4.38;1.40;;;19.80;58.90;;;;;;5054614;28;20035;-76
2022/05/26 05:15:36;;;;;;;;;;;19.90;59.00;;;;;;5038359;28;20516;-72
2022/05/26 05:18:02;;;;;;;3.60;1.30;;;20.00;58.20;;;;;;5050615;28;19966;-73
2022/05/26 05:20:28;;;;;;;;;;;20.10;58.50;;;;;;5034823;28;20083;-73
2022/05/26 05:23:02;;;;;;;5.28;1.58;;;20.00;58.10;;;;;;5052519;28;19912;-75
2022/05/26 05:25:37;;;;;;;4.65;1.52;;;20.10;58.70;;;;;;5017955;28;20120;-75
2022/05/26 05:28:42;;;;;;;7.40;1.63;;;20.10;58.90;;;;;;5002180;28;20049;-76
2022/05/26 05:31:34;;;;;;;2.40;1.17;;;20.20;58.70;;;;;;5032287;28;20045;-76
2022/05/26 05:34:24;;;;;;;4.32;1.52;;;20.30;58.50;;;;;;5025509;28;20044;-76
2022/05/26 05:36:50;;;;;;;3.08;1.38;;;20.40;58.00;;;;;;5014544;28;20053;-73
2022/05/26 05:39:19;;;;;;;;;;;20.50;57.40;;;;;;5015460;28;20095;-72
2022/05/26 05:41:45;;;;;;;17.67;2.10;;;20.50;56.70;;;;;;5032093;28;20008;-75
2022/05/26 05:44:11;;;;;;;5.43;1.33;;;20.60;56.90;;;;;;5014926;28;20037;-75
2022/05/26 05:49:25;;;;;;;4.65;1.20;;;20.70;56.50;;;;;;5048843;28;20047;-73
2022/05/26 05:51:53;;;;;;;7.45;1.40;;;20.80;56.40;;;;;;5034034;28;20061;-72
2022/05/26 05:54:19;;;;;;;3.97;1.58;;;20.80;56.00;;;;;;5017935;28;20045;-76
2022/05/26 05:56:47;;;;;;;3.33;1.38;;;20.90;56.10;;;;;;5034022;28;20025;-76
2022/05/26 05:59:13;;;;;;;4.88;1.35;;;20.90;55.90;;;;;;5034432;28;20525;-76
2022/05/26 06:01:40;;;;;;;2.65;1.23;;;20.90;55.10;;;;;;5033900;28;20071;-72
2022/05/26 06:04:07;;;;;;;3.00;1.40;;;20.90;54.90;;;;;;5030211;28;20041;-73
2022/05/26 06:06:52;;;;;;;8.93;1.63;;;21.00;55.50;;;;;;5014269;28;20064;-76
2022/05/26 06:09:18;;;;;;;2.28;1.08;;;21.10;54.60;;;;;;5034613;28;20034;-76
2022/05/26 06:11:44;;;;;;;;;;;21.20;54.30;;;;;;5018621;28;20084;-76
2022/05/26 06:14:11;;;;;;;4.07;1.67;;;21.20;54.40;;;;;;5018493;28;19917;-75
2022/05/26 06:16:37;;;;;;;3.70;1.25;;;21.30;53.70;;;;;;5034406;28;20043;-76
2022/05/26 06:19:07;;;;;;;2.38;0.98;;;21.40;53.40;;;;;;5029800;28;20043;-76
2022/05/26 06:21:36;;;;;;;13.90;1.52;;;21.40;52.90;;;;;;5037588;28;20033;-76
2022/05/26 06:24:02;;;;;;;14.60;1.67;;;21.60;52.90;;;;;;5037995;28;20048;-73
2022/05/26 06:26:29;;;;;;;3.58;0.90;;;21.70;52.50;;;;;;5040502;28;20094;-72
2022/05/26 06:37:13;;;;;;;2.88;1.13;;;21.90;51.20;;;;;;5060092;28;20047;-73
2022/05/26 06:39:40;;;;;;;3.92;1.10;;;21.90;50.10;;;;;;5075558;28;20064;-72
2022/05/26 06:42:07;;;;;;;2.95;1.13;;;21.80;50.00;;;;;;5040595;28;20033;-77
2022/05/26 06:44:53;;;;;;;2.78;1.15;;;21.80;50.70;;;;;;5040830;28;20486;-76
2022/05/26 06:47:26;;;;;;;3.83;1.27;;;21.90;51.00;;;;;;5057208;28;20039;-71
2022/05/26 06:49:52;;;;;;;5.72;1.33;;;22.00;51.10;;;;;;5056882;28;20115;-76
2022/05/26 06:52:22;;;;;;;;;;;22.00;50.20;;;;;;5040906;28;20036;-75
2022/05/26 06:54:48;;;;;;;3.13;1.08;;;22.00;50.20;;;;;;5057524;28;19978;-72
2022/05/26 06:57:20;;;;;;;2.08;1.00;;;22.00;49.20;;;;;;5057069;28;20127;-73
2022/05/26 06:59:52;;;;;;;2.70;1.10;;;22.10;49.20;;;;;;5057468;28;20036;-76
2022/05/26 07:02:35;;;;;;;3.22;1.20;;;22.30;49.60;;;;;;5057014;28;20037;-76
2022/05/26 07:05:02;;;;;;;10.23;1.75;;;22.50;49.30;;;;;;5071678;28;20112;-76
2022/05/26 07:07:28;;;;;;;9.43;1.60;;;22.80;48.80;;;;;;5056982;28;20050;-76
2022/05/26 07:09:55;;;;;;;;;;;23.00;48.50;;;;;;5057766;28;20135;-76
2022/05/26 07:12:42;;;;;;;2.67;0.98;;;23.10;48.30;;;;;;5056802;28;19916;-75
2022/05/26 07:16:07;;;;;;;2.40;1.13;;;23.30;47.60;;;;;;5031883;28;20087;-75
2022/05/26 07:18:18;;;;;;;4.63;1.20;;;23.20;47.60;;;;;;4965297;28;20245;-73
2022/05/26 07:22:03;;;;;;;3.70;1.27;;;23.20;47.40;;;;;;4972178;28;20058;-75
2022/05/26 07:24:05;;;;;;;5.53;1.17;;;23.20;46.70;;;;;;4971507;28;20110;-76
2022/05/26 07:26:34;;;;;;;4.20;1.15;;;23.30;46.40;;;;;;4955572;28;20191;-75
2022/05/26 07:29:01;;;;;;;3.33;1.30;;;23.30;46.80;;;;;;4973365;28;20141;-73
2022/05/26 07:31:27;;;;;;;4.15;1.42;;;23.40;46.80;;;;;;4973145;28;20093;-73
2022/05/26 07:33:53;;;;;;;2.92;1.17;;;23.50;46.60;;;;;;4955990;28;20070;-76
2022/05/26 07:42:12;;;;;;;9.35;2.53;;;23.70;46.00;;;;;;4972920;28;20113;-74
2022/05/26 07:44:44;;;;;;;4.47;1.23;;;23.80;46.50;;;;;;4973117;28;20046;-75
2022/05/26 07:47:11;;;;;;;3.85;1.10;;;23.80;46.40;;;;;;4990747;28;20046;-76
2022/05/26 07:49:57;;;;;;;7.30;1.40;;;23.90;44.90;;;;;;4975454;28;20066;-76
2022/05/26 07:52:23;;;;;;;2.47;1.10;;;24.10;45.70;;;;;;4992260;28;20448;-75
2022/05/26 07:54:49;;;;;;;2.58;1.10;;;24.20;46.00;;;;;;5025393;28;20048;-73
2022/05/26 07:57:34;;;;;;;;;;;24.30;45.30;;;;;;5056435;28;20040;-75
2022/05/26 08:00:00;;;;;;;3.65;1.30;;;24.50;45.40;;;;;;5056293;28;19916;-73
2022/05/26 08:02:27;;;;;;;4.25;1.05;;;24.60;44.20;;;;;;5055561;28;20481;-76
2022/05/26 08:04:53;;;;;;;2.85;1.20;;;24.70;43.40;;;;;;5051943;28;20117;-73
2022/05/26 08:07:19;;;;;;;3.00;1.38;;;24.70;43.30;;;;;;5035828;28;20037;-77
2022/05/26 08:09:45;;;;;;;4.50;1.15;;;24.80;43.30;;;;;;5054126;28;20055;-73
2022/05/26 08:12:13;;;;;;;;;;;24.90;43.20;;;;;;5036132;28;20032;-73
2022/05/26 08:14:41;;;;;;;5.15;1.60;;;24.90;43.30;;;;;;5036118;28;19982;-73
2022/05/26 08:17:08;;;;;;;7.30;1.52;;;25.00;42.20;;;;;;5035752;28;20406;-76
2022/05/26 08:19:34;;;;;;;2.45;1.10;;;25.20;42.40;;;;;;5043347;28;20466;-75
2022/05/26 08:22:01;;;;;;;2.90;1.20;;;25.40;42.10;;;;;;5038714;28;20476;-76
2022/05/26 08:24:27;;;;;;;2.85;1.35;;;25.50;41.50;;;;;;5055547;28;20036;-76
2022/05/26 08:26:53;;;;;;;4.50;1.55;;;25.70;42.00;;;;;;5072970;28;20052;-74
2022/05/26 08:29:19;;;;;;;;;;;25.80;39.50;;;;;;5055905;28;20186;-73
2022/05/26 08:31:45;;;;;;;5.30;1.40;;;25.80;41.00;;;;;;5055305;28;19916;-73
2022/05/26 08:34:11;;;;;;;6.50;2.17;;;26.00;40.40;;;;;;5072637;28;20073;-73
2022/05/26 08:36:37;;;;;;;3.53;1.17;;;26.00;40.50;;;;;;5071665;28;20024;-73
2022/05/26 08:39:04;;;;;;;5.28;1.40;;;25.90;40.00;;;;;;5055582;28;20032;-76
2022/05/26 08:41:51;;;;;;;4.70;1.30;;;26.10;40.00;;;;;;5055041;28;20036;-73
2022/05/26 08:44:43;;;;;;;;;;;26.20;39.90;;;;;;5055831;28;20060;-72
2022/05/26 08:47:51;;;;;;;6.22;1.27;;;26.40;40.00;;;;;;5072722;28;20278;-73
2022/05/26 08:50:37;;;;;;;2.60;1.00;;;26.70;37.90;;;;;;5054027;28;20043;-74
2022/05/26 08:53:28;;;;;;;2.92;1.30;;;27.10;38.20;;;;;;5038510;28;20036;-73
2022/05/26 08:55:55;;;;;;;9.07;2.90;;;27.50;37.30;;;;;;5054776;28;20040;-73
2022/05/26 08:58:26;;;;;;;7.65;2.00;;;27.80;36.00;;;;;;5055146;28;20107;-77
2022/05/26 09:00:54;;;;;;;5.15;1.17;;;28.10;36.40;;;;;;5054672;28;20112;-73
2022/05/26 09:03:38;;;;;;;6.47;1.92;;;28.50;34.90;;;;;;5038115;28;20485;-73
2022/05/26 09:06:08;;;;;;;4.40;1.40;;;28.90;34.70;;;;;;5071719;28;20037;-73
2022/05/26 09:14:41;;;;;;;6.17;2.03;;;30.50;31.70;;;;;;5055713;28;20394;-74
2022/05/26 09:17:11;;;;;;;4.15;1.25;;;30.70;32.00;;;;;;5055199;28;20075;-76
2022/05/26 09:19:57;;;;;;;2.22;1.08;;;31.50;30.70;;;;;;5054000;28;20059;-76
2022/05/26 09:22:47;;;;;;;1.83;0.98;;;31.90;29.60;;;;;;5037888;28;20529;-74
2022/05/26 09:26:01;;;;;;;3.20;1.30;;;32.20;30.00;;;;;;5054953;28;20059;-74
2022/05/26 09:28:52;;;;;;;3.58;1.15;;;32.90;29.90;;;;;;5072406;28;20552;-76
2022/05/26 09:34:33;;;;;;;2.47;0.82;;;34.40;27.80;;;;;;5071838;28;20039;-76
2022/05/26 09:37:22;;;;;;;2.85;1.00;;;35.10;26.80;;;;;;5072130;28;20155;-76
2022/05/26 09:39:48;;;;;;;2.22;1.10;;;35.80;26.10;;;;;;5072623;28;20033;-76
2022/05/26 09:42:17;;;;;;;2.17;1.10;;;36.50;24.10;;;;;;5072133;28;20521;-76
2022/05/26 09:44:53;;;;;;;3.40;1.20;;;36.80;23.50;;;;;;5060267;28;20063;-76
2022/05/26 09:47:32;;;;;;;3.42;0.80;;;37.40;23.50;;;;;;5078835;28;20040;-73
2022/05/26 09:50:01;;;;;;;1.88;1.00;;;37.90;23.30;;;;;;5057123;28;20086;-76
2022/05/26 09:52:58;;;;;;;2.40;1.10;;;38.60;22.50;;;;;;5040695;28;20080;-73
2022/05/26 09:56:02;;;;;;;2.53;1.05;;;39.30;22.00;;;;;;5058421;28;20095;-71
2022/05/26 09:58:46;;;;;;;3.45;1.10;;;40.20;22.20;;;;;;5059028;28;20470;-75
2022/05/26 10:01:27;;;;;;;1.98;1.10;;;40.70;21.30;;;;;;5058504;28;20112;-73
2022/05/26 10:04:44;;;;;;;2.90;0.80;;;41.20;20.20;;;;;;5058694;28;20052;-73
2022/05/26 10:07:31;;;;;;;12.43;1.83;;;41.60;19.60;;;;;;5058422;28;20037;-72
2022/05/26 10:10:29;;;;;;;4.10;1.10;;;42.20;19.10;;;;;;5058689;28;20045;-72
2022/05/26 10:13:32;;;;;;;3.58;1.23;;;42.70;18.90;;;;;;5040931;28;20082;-75
2022/05/26 10:16:37;;;;;;;2.80;1.13;;;43.00;18.60;;;;;;5040478;28;20445;-75
2022/05/26 10:19:40;;;;;;;3.95;1.20;;;43.50;18.60;;;;;;5058932;28;20037;-73
2022/05/26 10:22:47;;;;;;;2.80;1.27;;;44.00;18.10;;;;;;5078162;28;20119;-75
2022/05/26 10:25:43;;;;;;;2.35;1.05;;;44.00;17.20;;;;;;5060466;28;20505;-72
2022/05/26 10:28:47;;;;;;;4.35;0.90;;;44.10;16.80;;;;;;5078477;28;20121;-72
2022/05/26 10:31:18;;;;;;;2.05;1.10;;;44.30;17.30;;;;;;5078429;28;20071;-73
2022/05/26 10:34:21;;;;;;;2.20;1.02;;;44.00;16.70;;;;;;5060666;28;20028;-73
2022/05/26 10:37:24;;;;;;;4.88;1.00;;;44.50;16.60;;;;;;5059347;28;20379;-75
2022/05/26 10:40:33;;;;;;;5.13;1.20;;;45.10;16.50;;;;;;5078948;28;20060;-74
2022/05/26 10:43:25;;;;;;;1.98;1.08;;;45.50;16.20;;;;;;5078564;28;20037;-75
2022/05/26 10:45:52;;;;;;;3.58;1.27;;;46.00;16.00;;;;;;5060403;28;20052;-75
2022/05/26 10:49:00;;;;;;;2.15;1.20;;;46.50;14.70;;;;;;5060708;28;20048;-72
2022/05/26 10:51:51;;;;;;;2.10;1.20;;;46.90;15.00;;;;;;5077389;28;20040;-73
2022/05/26 10:55:03;;;;;;;4.00;1.70;;;47.20;15.10;;;;;;5060231;28;20056;-72
2022/05/26 10:58:12;;;;;;;3.83;1.50;;;47.50;14.50;;;;;;5056993;28;20032;-75
2022/05/26 11:00:38;;;;;;;4.13;1.63;;;48.00;14.50;;;;;;5074755;28;20044;-73
2022/05/26 11:03:29;;;;;;;2.38;1.40;;;48.30;13.10;;;;;;5075051;28;20055;-73
2022/05/26 11:06:04;;;;;;;2.47;1.40;;;48.70;13.80;;;;;;5056225;28;20111;-73
2022/05/26 11:09:08;;;;;;;2.15;1.20;;;49.00;13.70;;;;;;5057279;28;20028;-74
2022/05/26 11:11:59;;;;;;;2.63;1.50;;;49.20;13.40;;;;;;5074716;28;20397;-72
2022/05/26 11:18:45;;;;;;;11.18;2.00;;;49.40;13.10;;;;;;5075251;28;20075;-75
2022/05/26 11:21:18;;;;;;;3.33;1.63;;;49.80;12.70;;;;;;5073750;28;20043;-74
2022/05/26 11:23:44;;;;;;;4.47;1.60;;;49.90;12.70;;;;;;5074809;28;20072;-75
2022/05/26 11:26:49;;;;;;;2.38;1.20;;;50.20;11.30;;;;;;5039681;28;20067;-73
2022/05/26 11:29:37;;;;;;;6.55;1.83;;;50.20;12.60;;;;;;5056813;28;20041;-72
2022/05/26 11:38:35;;;;;;;2.40;1.48;;;51.40;12.00;;;;;;5059383;28;20040;-74
2022/05/26 11:41:01;;;;;;;5.95;2.15;;;51.60;11.20;;;;;;5056333;28;20120;-75
2022/05/26 11:44:06;;;;;;;5.18;1.90;;;51.60;11.00;;;;;;5056244;28;20194;-72
2022/05/26 11:46:56;;;;;;;7.32;2.10;;;51.80;11.50;;;;;;5055811;28;20520;-75
2022/05/26 11:50:01;;;;;;;7.47;2.22;;;51.90;11.40;;;;;;5074574;28;20486;-75
2022/05/26 11:53:05;;;;;;;;;;;52.10;11.80;;;;;;5073631;28;20036;-74
2022/05/26 11:56:11;;;;;;;13.52;3.60;;;52.30;12.30;;;;;;5073780;28;19927;-74
2022/05/26 11:59:16;;;;;;;12.52;4.07;;;52.50;11.80;;;;;;5074020;28;20041;-73
2022/05/26 12:01:47;;;;;;;3.58;2.40;;;52.50;11.50;;;;;;5073697;28;20048;-72
2022/05/26 12:04:36;;;;;;;6.93;2.40;;;52.70;10.40;;;;;;5056122;28;20060;-75
2022/05/26 12:07:21;;;;;;;6.20;2.60;;;52.50;11.20;;;;;;5054583;28;20044;-73
2022/05/26 12:10:25;;;;;;;7.93;2.08;;;51.80;11.30;;;;;;5074163;28;20439;-72
2022/05/26 12:13:32;;;;;;;7.45;2.65;;;51.90;11.50;;;;;;5055933;28;20058;-74
2022/05/26 12:16:19;;;;;;;4.15;1.90;;;52.10;11.70;;;;;;5056090;28;20398;-75
2022/05/26 12:18:51;;;;;;;5.90;2.30;;;52.10;11.70;;;;;;5073763;28;20032;-74
2022/05/26 12:21:42;;;;;;;15.15;5.10;;;51.80;11.00;;;;;;5051366;28;20041;-73
2022/05/26 12:24:58;;;;;;;17.33;3.90;;;52.30;11.90;;;;;;5035970;28;20429;-76
2022/05/26 12:27:55;;;;;;;31.08;6.25;;;52.80;11.40;;;;;;5053143;28;20072;-72
2022/05/26 12:30:39;;;;;;;3.35;2.05;;;52.40;11.50;;;;;;5053653;28;20612;-72
2022/05/26 12:33:27;;;;;;;138.00;15.07;;;51.90;10.90;;;;;;5053266;28;20037;-75
2022/05/26 12:36:23;;;;;;;3.05;1.98;;;51.50;11.70;;;;;;5053297;28;20029;-72
2022/05/26 12:39:30;;;;;;;4.40;2.20;;;51.20;10.90;;;;;;5055451;28;20036;-72
2022/05/26 12:42:52;;;;;;;13.82;2.83;;;48.90;12.10;;;;;;5055012;28;20028;-74
2022/05/26 12:45:56;;;;;;;11.50;3.47;;;47.20;13.50;;;;;;5073273;28;20098;-72
2022/05/26 12:48:40;;;;;;;22.15;4.50;;;47.70;13.20;;;;;;5073108;28;20037;-74
2022/05/26 12:51:52;;;;;;;4.60;2.10;;;48.00;13.70;;;;;;5071923;28;20091;-72
2022/05/26 12:54:19;;;;;;;15.35;3.17;;;48.90;13.00;;;;;;5055075;28;20444;-73
2022/05/26 12:56:57;;;;;;;6.38;1.88;;;49.90;12.80;;;;;;5054765;28;20032;-73
2022/05/26 12:59:32;;;;;;;50.78;8.93;;;50.40;12.30;;;;;;5055455;28;20036;-73
2022/05/26 13:01:58;;;;;;;17.00;3.45;;;50.80;12.40;;;;;;5055204;28;20386;-73
2022/05/26 13:04:34;;;;;;;16.50;3.53;;;51.20;12.00;;;;;;5072693;28;20056;-75
2022/05/26 13:07:05;;;;;;;7.07;2.08;;;51.50;11.80;;;;;;5071731;28;20474;-72
2022/05/26 13:09:52;;;;;;;27.30;4.07;;;51.80;11.10;;;;;;5055091;28;20115;-75
2022/05/26 13:12:23;;;;;;;6.10;2.30;;;51.70;11.60;;;;;;5054548;28;20115;-75
2022/05/26 13:15:09;;;;;;;34.28;5.25;;;51.30;12.00;;;;;;5038298;28;20390;-74
2022/05/26 13:20:36;;;;;;;3.92;1.92;;;51.50;11.60;;;;;;5057484;28;20127;-74
2022/05/26 13:23:03;;;;;;;5.63;1.75;;;51.40;11.00;;;;;;5071859;28;20521;-72
2022/05/26 13:25:33;;;;;;;5.68;1.80;;;50.40;11.90;;;;;;5054312;28;20460;-75
2022/05/26 13:28:27;;;;;;;9.23;2.08;;;48.80;12.90;;;;;;5039197;28;20060;-73
2022/05/26 13:33:56;;;;;;;7.15;2.22;;;49.10;12.70;;;;;;5052313;28;20512;-75
2022/05/26 13:36:34;;;;;;;8.90;2.60;;;49.20;12.70;;;;;;5033497;28;20053;-73
2022/05/26 13:39:25;;;;;;;11.55;2.00;;;48.80;12.80;;;;;;5052670;28;20394;-72
2022/05/26 13:42:02;;;;;;;9.82;2.13;;;47.80;13.50;;;;;;5051991;28;20508;-74
2022/05/26 13:44:49;;;;;;;5.35;1.70;;;46.70;14.20;;;;;;5018373;28;20053;-75
2022/05/26 13:47:15;;;;;;;7.13;2.00;;;45.30;15.00;;;;;;5034286;28;20037;-72
2022/05/26 13:49:44;;;;;;;5.85;1.88;;;44.10;15.90;;;;;;5052601;28;20044;-75
2022/05/26 13:52:33;;;;;;;2.70;1.50;;;42.80;16.50;;;;;;5016824;28;20452;-72
2022/05/26 13:55:36;;;;;;;23.55;3.00;;;41.80;16.90;;;;;;5052655;28;20144;-72
2022/05/26 13:58:08;;;;;;;3.60;1.88;;;41.00;18.50;;;;;;5034485;28;20227;-72
2022/05/26 14:00:37;;;;;;;5.53;1.60;;;40.80;17.90;;;;;;5051824;28;20512;-73
2022/05/26 14:03:26;;;;;;;19.77;2.20;;;40.40;18.60;;;;;;5034337;28;20025;-73
2022/05/26 14:06:31;;;;;;;8.00;1.90;;;40.00;18.80;;;;;;5033821;28;20043;-75
2022/05/26 14:09:02;;;;;;;11.95;2.05;;;39.70;19.20;;;;;;5030593;28;20038;-73
2022/05/26 14:12:03;;;;;;;8.05;2.08;;;39.40;19.70;;;;;;4998173;28;20034;-75
2022/05/26 14:14:30;;;;;;;5.45;1.85;;;39.20;19.70;;;;;;5015570;28;20053;-72
2022/05/26 14:17:55;;;;;;;10.98;1.85;;;38.90;20.00;;;;;;5014132;28;20586;-74
2022/05/26 14:20:25;;;;;;;6.25;1.83;;;38.50;20.40;;;;;;5030610;28;20037;-76
2022/05/26 14:22:52;;;;;;;6.95;1.77;;;37.90;21.30;;;;;;5023801;28;20588;-76
2022/05/26 14:25:22;;;;;;;3.80;1.60;;;37.70;22.00;;;;;;5052061;28;20029;-72
2022/05/26 14:28:08;;;;;;;5.05;1.70;;;37.20;22.60;;;;;;5047952;28;20047;-76
2022/05/26 14:30:52;;;;;;;3.20;1.50;;;36.70;22.40;;;;;;5056424;28;20036;-73
2022/05/26 14:33:23;;;;;;;3.72;1.60;;;36.30;22.80;;;;;;5057843;28;20051;-73
2022/05/26 14:35:50;;;;;;;14.68;2.15;;;36.00;23.70;;;;;;5057719;28;20489;-76
2022/05/26 14:38:17;;;;;;;5.70;1.83;;;35.70;24.10;;;;;;5040204;28;20465;-76
2022/05/26 14:40:44;;;;;;;13.90;2.13;;;35.50;24.20;;;;;;5057311;28;20037;-76
2022/05/26 14:43:14;;;;;;;10.95;2.55;;;35.40;24.90;;;;;;5057710;28;20036;-73
2022/05/26 14:45:41;;;;;;;4.38;1.90;;;35.20;25.00;;;;;;5057133;28;20109;-73